Time;durP1;ratioP1;P1;durP2;ratioP2;P2;SDS_P1;SDS_P2;PMS_P1;PMS_P2;Temp;Humidity;BMP_temperature;BMP_pressure;BME280_temperature;BME280_humidity;BME280_pressure;Samples;Min_cycle;Max_cycle;Signal;HPM_P1;HPM_P2
2021/01/13 00:01:12;;;;;;;0.85;0.50;;;21.50;46.70;;;;;;4957745;28;20482;-71
2021/01/13 00:03:37;;;;;;;1.27;0.70;;;21.50;46.70;;;;;;4949151;28;20035;-69
2021/01/13 00:06:03;;;;;;;2.60;0.80;;;21.50;46.70;;;;;;4959284;28;20485;-69
2021/01/13 00:08:28;;;;;;;1.30;0.68;;;21.50;46.80;;;;;;4966197;28;20031;-69
2021/01/13 00:10:54;;;;;;;1.10;0.60;;;21.50;46.80;;;;;;4956119;28;20742;-69
2021/01/13 00:13:19;;;;;;;1.63;0.98;;;21.40;46.70;;;;;;4967208;28;20118;-69
2021/01/13 00:15:45;;;;;;;1.30;0.65;;;21.40;46.80;;;;;;4959583;28;20049;-71
2021/01/13 00:18:11;;;;;;;1.20;0.70;;;21.40;46.80;;;;;;4959956;28;20037;-71
2021/01/13 00:20:37;;;;;;;1.35;0.80;;;21.40;46.80;;;;;;4957534;28;20035;-71
2021/01/13 00:23:03;;;;;;;0.90;0.70;;;21.40;46.90;;;;;;4956056;28;20327;-69
2021/01/13 00:25:28;;;;;;;0.77;0.60;;;21.30;46.80;;;;;;4968538;28;20031;-69
2021/01/13 00:27:54;;;;;;;1.63;0.75;;;21.30;46.80;;;;;;4967718;28;20092;-68
2021/01/13 00:30:20;;;;;;;1.00;0.60;;;21.30;46.80;;;;;;4965784;28;20452;-69
2021/01/13 00:32:46;;;;;;;1.52;0.77;;;21.30;46.80;;;;;;4963811;28;20129;-69
2021/01/13 00:35:13;;;;;;;1.52;0.70;;;21.30;46.90;;;;;;4966612;28;20533;-68
2021/01/13 00:37:39;;;;;;;1.00;0.63;;;21.20;46.80;;;;;;4965805;28;20062;-68
2021/01/13 00:40:07;;;;;;;0.90;0.60;;;21.20;46.80;;;;;;4964955;28;20022;-68
2021/01/13 00:42:33;;;;;;;0.98;0.60;;;21.20;46.90;;;;;;4965473;28;20629;-68
2021/01/13 00:44:59;;;;;;;2.33;0.70;;;21.20;46.90;;;;;;4964210;28;20034;-68
2021/01/13 00:47:24;;;;;;;0.98;0.60;;;21.10;46.90;;;;;;4970408;28;20027;-68
2021/01/13 00:49:50;;;;;;;1.00;0.60;;;21.10;46.90;;;;;;4969278;28;20034;-68
2021/01/13 00:52:16;;;;;;;0.85;0.50;;;21.10;46.90;;;;;;4969337;28;20398;-68
2021/01/13 00:54:41;;;;;;;1.45;0.80;;;21.10;47.00;;;;;;4970854;28;20477;-68
2021/01/13 00:57:08;;;;;;;1.38;0.70;;;21.10;47.00;;;;;;4964524;28;20126;-68
2021/01/13 00:59:34;;;;;;;1.27;0.60;;;21.10;47.00;;;;;;4967431;28;20026;-68
2021/01/13 01:02:00;;;;;;;1.15;0.70;;;21.00;46.90;;;;;;4968636;28;20057;-68
2021/01/13 01:04:25;;;;;;;0.85;0.60;;;21.00;47.00;;;;;;4969684;28;20030;-68
2021/01/13 01:06:51;;;;;;;0.75;0.50;;;21.00;47.00;;;;;;4971198;28;20030;-68
2021/01/13 01:09:17;;;;;;;1.50;0.50;;;21.00;47.00;;;;;;4970043;28;20343;-68
2021/01/13 01:11:42;;;;;;;0.73;0.50;;;21.00;47.00;;;;;;4971619;28;20434;-69
2021/01/13 01:14:10;;;;;;;1.02;0.60;;;21.00;47.10;;;;;;4967951;28;20033;-69
2021/01/13 01:16:40;;;;;;;0.85;0.55;;;21.00;47.10;;;;;;4971359;28;20513;-68
2021/01/13 01:19:08;;;;;;;0.85;0.47;;;20.90;47.10;;;;;;4963390;28;20603;-68
2021/01/13 01:21:38;;;;;;;1.40;0.60;;;20.90;47.10;;;;;;4960699;28;20130;-68
2021/01/13 01:24:04;;;;;;;1.15;0.50;;;20.90;47.10;;;;;;4972086;28;20031;-68
2021/01/13 01:26:29;;;;;;;0.47;0.47;;;20.90;47.10;;;;;;4972386;28;20050;-68
2021/01/13 01:28:55;;;;;;;1.02;0.40;;;20.90;47.10;;;;;;4965420;28;20027;-68
2021/01/13 01:31:20;;;;;;;0.82;0.47;;;20.90;47.10;;;;;;4969177;28;20133;-68
2021/01/13 01:33:46;;;;;;;0.50;0.40;;;20.80;47.20;;;;;;4971482;28;20103;-69
2021/01/13 01:36:17;;;;;;;0.63;0.43;;;20.80;47.10;;;;;;4969440;28;20041;-67
2021/01/13 01:38:43;;;;;;;0.73;0.50;;;20.80;47.20;;;;;;4966517;28;20027;-68
2021/01/13 01:41:15;;;;;;;0.47;0.40;;;20.80;47.20;;;;;;4960216;28;20039;-70
2021/01/13 01:43:43;;;;;;;0.98;0.40;;;20.80;47.20;;;;;;4966726;28;20551;-68
2021/01/13 01:46:09;;;;;;;1.23;0.60;;;20.80;47.20;;;;;;4966334;28;20023;-68
2021/01/13 01:48:53;;;;;;;1.20;0.63;;;20.80;47.30;;;;;;4965425;28;20640;-68
2021/01/13 01:51:58;;;;;;;1.05;0.65;;;20.70;47.20;;;;;;4952774;28;20062;-70
2021/01/13 01:54:24;;;;;;;1.35;0.60;;;20.80;47.30;;;;;;4958955;28;20065;-68
2021/01/13 01:56:53;;;;;;;0.68;0.45;;;20.70;47.30;;;;;;4968702;28;20057;-68
2021/01/13 01:59:37;;;;;;;1.23;0.60;;;20.70;47.30;;;;;;4967511;28;20058;-68
2021/01/13 02:02:03;;;;;;;0.60;0.45;;;20.70;47.30;;;;;;4968597;28;20034;-68
2021/01/13 02:04:31;;;;;;;0.60;0.47;;;20.70;47.40;;;;;;4952854;28;20023;-68
2021/01/13 02:07:08;;;;;;;1.75;0.60;;;20.70;47.40;;;;;;4965914;28;20023;-69
2021/01/13 02:09:35;;;;;;;0.50;0.50;;;20.70;47.40;;;;;;4964041;28;20616;-68
2021/01/13 02:12:09;;;;;;;1.13;0.40;;;20.70;47.40;;;;;;4950175;28;20042;-69
2021/01/13 02:14:35;;;;;;;0.40;0.40;;;20.60;47.40;;;;;;4965397;28;20023;-70
2021/01/13 02:17:06;;;;;;;1.05;0.60;;;20.60;47.40;;;;;;4967516;28;20133;-70
2021/01/13 02:19:46;;;;;;;0.63;0.50;;;20.60;47.40;;;;;;4957881;28;20047;-70
2021/01/13 02:22:14;;;;;;;0.70;0.47;;;20.60;47.40;;;;;;4963675;28;20031;-69
2021/01/13 02:24:58;;;;;;;0.98;0.50;;;20.60;47.50;;;;;;4970690;28;20122;-70
2021/01/13 02:28:02;;;;;;;1.13;0.40;;;20.60;47.50;;;;;;4958742;28;20031;-68
2021/01/13 02:30:37;;;;;;;0.82;0.47;;;20.60;47.50;;;;;;4943342;29;20042;-68
2021/01/13 02:33:12;;;;;;;0.70;0.63;;;20.50;47.50;;;;;;4949127;28;20051;-68
2021/01/13 02:36:09;;;;;;;0.40;0.40;;;20.50;47.50;;;;;;4950503;28;20079;-71
2021/01/13 02:38:37;;;;;;;0.90;0.50;;;20.50;47.50;;;;;;4966447;28;20109;-70
2021/01/13 02:41:12;;;;;;;0.57;0.40;;;20.50;47.50;;;;;;4954501;28;20027;-68
2021/01/13 02:44:06;;;;;;;1.27;0.80;;;20.50;47.50;;;;;;4967223;28;20053;-68
2021/01/13 02:46:58;;;;;;;0.57;0.40;;;20.50;47.60;;;;;;4950713;28;20102;-69
2021/01/13 02:50:01;;;;;;;1.20;0.50;;;20.50;47.60;;;;;;4955103;28;20170;-69
2021/01/13 02:52:42;;;;;;;0.65;0.45;;;20.50;47.60;;;;;;4948488;28;20046;-69
2021/01/13 02:55:15;;;;;;;0.75;0.45;;;20.50;47.60;;;;;;4964136;28;20061;-69
2021/01/13 02:57:40;;;;;;;1.83;0.40;;;20.50;47.60;;;;;;4968073;28;20113;-69
2021/01/13 03:00:07;;;;;;;0.50;0.50;;;20.40;47.60;;;;;;4964845;28;20122;-69
2021/01/13 03:02:38;;;;;;;0.47;0.40;;;20.40;47.60;;;;;;4982676;28;20027;-69
2021/01/13 03:05:05;;;;;;;0.32;0.32;;;20.40;47.60;;;;;;4988553;28;20027;-69
2021/01/13 03:07:36;;;;;;;0.70;0.40;;;20.40;47.60;;;;;;4983659;28;20038;-69
2021/01/13 03:10:15;;;;;;;0.75;0.50;;;20.40;47.70;;;;;;4966525;28;20194;-69
2021/01/13 03:12:41;;;;;;;;;;;20.40;47.70;;;;;;4963715;28;20129;-69
2021/01/13 03:15:08;;;;;;;0.57;0.40;;;20.40;47.70;;;;;;4965299;28;20064;-69
2021/01/13 03:17:33;;;;;;;0.68;0.40;;;20.40;47.70;;;;;;4951651;28;20426;-68
2021/01/13 03:20:20;;;;;;;0.73;0.40;;;20.40;47.70;;;;;;4954386;28;20151;-69
2021/01/13 03:22:50;;;;;;;0.50;0.40;;;20.30;47.70;;;;;;4962012;28;20089;-69
2021/01/13 03:25:19;;;;;;;;;;;20.30;47.70;;;;;;4970474;28;20478;-68
2021/01/13 03:27:46;;;;;;;0.50;0.40;;;20.30;47.70;;;;;;4968365;28;19913;-67
2021/01/13 03:30:13;;;;;;;0.63;0.45;;;20.30;47.70;;;;;;4957875;28;20042;-68
2021/01/13 03:33:08;;;;;;;0.57;0.43;;;20.30;47.70;;;;;;4949994;28;20070;-68
2021/01/13 03:35:42;;;;;;;0.60;0.40;;;20.30;47.70;;;;;;4952134;28;20023;-68
2021/01/13 03:38:17;;;;;;;0.40;0.40;;;20.30;47.80;;;;;;4968205;28;20034;-68
2021/01/13 03:40:46;;;;;;;0.32;0.32;;;20.30;47.80;;;;;;4949118;28;20035;-68
2021/01/13 03:43:22;;;;;;;0.47;0.40;;;20.30;47.80;;;;;;4949485;28;20117;-68
2021/01/13 03:45:53;;;;;;;0.32;0.32;;;20.30;47.90;;;;;;4966174;28;20042;-68
2021/01/13 03:48:47;;;;;;;2.88;0.52;;;20.30;47.90;;;;;;4967981;28;20478;-68
2021/01/13 03:51:25;;;;;;;0.32;0.20;;;20.30;47.80;;;;;;4949177;28;20027;-67
2021/01/13 03:53:51;;;;;;;0.50;0.40;;;20.20;47.80;;;;;;4953756;28;20049;-68
2021/01/13 03:56:25;;;;;;;0.30;0.30;;;20.30;47.90;;;;;;4956199;28;20035;-68
2021/01/13 03:58:52;;;;;;;1.27;0.50;;;20.20;47.80;;;;;;4962088;28;20039;-67
2021/01/13 04:01:24;;;;;;;0.95;0.60;;;20.20;47.80;;;;;;4958546;28;20038;-67
2021/01/13 04:03:54;;;;;;;0.35;0.35;;;20.20;47.80;;;;;;4968607;28;20033;-68
2021/01/13 04:06:20;;;;;;;0.50;0.50;;;20.20;47.90;;;;;;4967742;28;20474;-67
2021/01/13 04:08:47;;;;;;;0.70;0.60;;;20.20;47.90;;;;;;4962297;28;20034;-67
2021/01/13 04:11:14;;;;;;;0.43;0.40;;;20.20;47.90;;;;;;4948042;28;20474;-67
2021/01/13 04:13:41;;;;;;;0.50;0.40;;;20.20;48.00;;;;;;4950721;28;20498;-68
2021/01/13 04:16:13;;;;;;;0.63;0.50;;;20.20;48.00;;;;;;4965940;28;20577;-67
2021/01/13 04:18:40;;;;;;;0.50;0.30;;;20.20;48.00;;;;;;4956818;28;20526;-69
2021/01/13 04:21:08;;;;;;;0.93;0.47;;;20.20;48.00;;;;;;4967656;28;20038;-69
2021/01/13 04:23:35;;;;;;;0.40;0.40;;;20.20;48.00;;;;;;4961504;28;20039;-69
2021/01/13 04:26:01;;;;;;;0.40;0.40;;;20.20;48.00;;;;;;4962102;28;20072;-69
2021/01/13 04:28:27;;;;;;;0.50;0.40;;;20.10;48.00;;;;;;4965159;28;20027;-69
2021/01/13 04:30:54;;;;;;;0.50;0.40;;;20.20;48.10;;;;;;4954124;28;20050;-69
2021/01/13 04:33:21;;;;;;;0.40;0.35;;;20.10;48.10;;;;;;4948712;28;20079;-69
2021/01/13 04:35:47;;;;;;;0.68;0.40;;;20.10;48.10;;;;;;4952736;28;20457;-69
2021/01/13 04:38:19;;;;;;;0.70;0.40;;;20.10;48.10;;;;;;4968070;28;20118;-69
2021/01/13 04:40:49;;;;;;;0.60;0.40;;;20.10;48.10;;;;;;4981807;28;20026;-69
2021/01/13 04:43:21;;;;;;;0.50;0.40;;;20.10;48.20;;;;;;4964703;28;20059;-69
2021/01/13 04:45:48;;;;;;;0.90;0.40;;;20.10;48.10;;;;;;4960408;28;20125;-69
2021/01/13 04:48:16;;;;;;;0.65;0.50;;;20.10;48.20;;;;;;4962809;28;20083;-70
2021/01/13 04:50:50;;;;;;;0.52;0.40;;;20.10;48.20;;;;;;4975074;28;20027;-69
2021/01/13 04:53:21;;;;;;;1.15;0.60;;;20.10;48.20;;;;;;4949160;28;20047;-69
2021/01/13 04:55:55;;;;;;;0.30;0.30;;;20.10;48.20;;;;;;4968295;28;20034;-69
2021/01/13 04:58:20;;;;;;;1.02;0.40;;;20.10;48.20;;;;;;4949301;28;20102;-69
2021/01/13 05:01:23;;;;;;;0.57;0.50;;;20.10;48.20;;;;;;4961176;28;20069;-69
2021/01/13 05:04:33;;;;;;;0.85;0.50;;;20.10;48.30;;;;;;4954123;28;20110;-70
2021/01/13 05:07:28;;;;;;;0.65;0.50;;;20.00;48.20;;;;;;4949625;28;20129;-69
2021/01/13 05:10:11;;;;;;;0.40;0.35;;;20.00;48.20;;;;;;4963056;28;20030;-69
2021/01/13 05:12:50;;;;;;;0.30;0.30;;;20.00;48.20;;;;;;4957472;28;20081;-69
2021/01/13 05:15:19;;;;;;;0.45;0.40;;;20.00;48.30;;;;;;4965642;28;20439;-69
2021/01/13 05:17:57;;;;;;;0.70;0.40;;;20.00;48.30;;;;;;4962664;28;20031;-67
2021/01/13 05:20:28;;;;;;;0.47;0.32;;;20.00;48.30;;;;;;4967377;28;20035;-69
2021/01/13 05:22:55;;;;;;;0.73;0.50;;;20.00;48.30;;;;;;4961934;28;20628;-69
2021/01/13 05:25:41;;;;;;;0.40;0.40;;;20.00;48.30;;;;;;4974926;28;20038;-67
2021/01/13 05:28:08;;;;;;;0.40;0.40;;;20.00;48.30;;;;;;4963337;28;20035;-67
2021/01/13 05:30:38;;;;;;;0.50;0.47;;;20.00;48.30;;;;;;4964106;28;20043;-67
2021/01/13 05:33:07;;;;;;;1.33;0.47;;;20.00;48.40;;;;;;4970761;28;20039;-67
2021/01/13 05:35:36;;;;;;;0.63;0.40;;;20.00;48.40;;;;;;4971660;28;20034;-67
2021/01/13 05:38:08;;;;;;;0.50;0.50;;;20.00;48.40;;;;;;4970662;28;20042;-67
2021/01/13 05:40:42;;;;;;;0.65;0.43;;;20.00;48.40;;;;;;4963784;28;20031;-67
2021/01/13 05:43:09;;;;;;;0.50;0.50;;;20.00;48.40;;;;;;4965921;28;20407;-67
2021/01/13 05:45:39;;;;;;;1.70;0.50;;;20.00;48.40;;;;;;4965991;28;20062;-67
2021/01/13 05:48:26;;;;;;;0.40;0.38;;;20.00;48.40;;;;;;4958072;28;20051;-67
2021/01/13 05:50:54;;;;;;;0.47;0.47;;;20.00;48.40;;;;;;4966262;28;20246;-67
2021/01/13 05:53:23;;;;;;;0.32;0.30;;;20.00;48.30;;;;;;4959736;28;20031;-67
2021/01/13 05:55:50;;;;;;;0.32;0.30;;;20.00;48.30;;;;;;4969794;28;20045;-67
2021/01/13 05:58:24;;;;;;;0.60;0.50;;;20.00;48.30;;;;;;4969764;28;20053;-68
2021/01/13 06:00:53;;;;;;;0.50;0.43;;;20.00;48.30;;;;;;4966292;28;20037;-68
2021/01/13 06:03:25;;;;;;;0.95;0.52;;;20.00;48.40;;;;;;4971280;28;20050;-68
2021/01/13 06:05:54;;;;;;;0.40;0.40;;;20.00;48.40;;;;;;4960303;28;20441;-68
2021/01/13 06:08:25;;;;;;;0.50;0.50;;;20.00;48.40;;;;;;4965954;28;20174;-68
2021/01/13 06:10:56;;;;;;;0.40;0.40;;;20.00;48.40;;;;;;4965587;28;20047;-68
2021/01/13 06:13:27;;;;;;;0.70;0.50;;;20.00;48.50;;;;;;4965272;28;20125;-69
2021/01/13 06:15:58;;;;;;;0.57;0.40;;;20.00;48.40;;;;;;4955376;28;20038;-68
2021/01/13 06:18:26;;;;;;;0.50;0.40;;;20.00;48.50;;;;;;4958037;28;20066;-69
2021/01/13 06:20:56;;;;;;;0.63;0.60;;;20.00;49.10;;;;;;4965438;28;20093;-67
2021/01/13 06:23:22;;;;;;;0.95;0.63;;;20.10;49.50;;;;;;4970328;28;20111;-68
2021/01/13 06:25:53;;;;;;;1.05;0.68;;;20.20;49.40;;;;;;4975073;28;20019;-68
2021/01/13 06:28:31;;;;;;;1.05;0.60;;;20.40;49.20;;;;;;4964460;28;20034;-68
2021/01/13 06:31:00;;;;;;;0.60;0.60;;;20.50;48.90;;;;;;4960594;28;20027;-68
2021/01/13 06:33:32;;;;;;;;;;;20.70;48.60;;;;;;4970138;28;20035;-68
2021/01/13 06:36:31;;;;;;;1.23;0.70;;;20.80;48.30;;;;;;4973216;28;20103;-67
2021/01/13 06:39:01;;;;;;;0.57;0.50;;;20.90;48.00;;;;;;4963601;28;20029;-67
2021/01/13 06:41:28;;;;;;;0.63;0.60;;;21.10;47.80;;;;;;4971404;28;20054;-68
2021/01/13 06:44:03;;;;;;;1.42;0.70;;;21.20;47.60;;;;;;4977255;28;20058;-68
2021/01/13 06:46:30;;;;;;;1.23;0.60;;;21.30;47.40;;;;;;4972433;28;20106;-69
2021/01/13 06:49:10;;;;;;;0.95;0.52;;;21.50;47.20;;;;;;4980764;28;20038;-68
2021/01/13 06:51:36;;;;;;;0.50;0.50;;;21.60;47.00;;;;;;4975911;28;20116;-69
2021/01/13 06:54:05;;;;;;;0.60;0.60;;;21.70;46.80;;;;;;4974071;28;20484;-69
2021/01/13 06:56:43;;;;;;;1.77;0.47;;;21.80;46.50;;;;;;4975661;28;20054;-67
2021/01/13 06:59:09;;;;;;;0.68;0.60;;;21.90;46.30;;;;;;4967667;28;20070;-68
2021/01/13 07:01:53;;;;;;;0.88;0.60;;;22.00;46.20;;;;;;4970008;28;20038;-69
2021/01/13 07:04:19;;;;;;;1.08;0.55;;;22.10;46.10;;;;;;4963071;28;20125;-67
2021/01/13 07:07:05;;;;;;;0.80;0.60;;;22.10;45.90;;;;;;4964295;28;20042;-68
2021/01/13 07:09:42;;;;;;;1.05;0.50;;;22.20;45.90;;;;;;4959767;28;20030;-69
2021/01/13 07:12:14;;;;;;;0.50;0.50;;;22.30;45.70;;;;;;4960076;28;20023;-68
2021/01/13 07:14:44;;;;;;;0.47;0.47;;;22.30;45.50;;;;;;4964759;28;20717;-68
2021/01/13 07:17:23;;;;;;;1.05;0.40;;;22.20;45.60;;;;;;4962946;28;20019;-68
2021/01/13 07:19:57;;;;;;;1.07;0.50;;;22.20;45.80;;;;;;4962898;28;20038;-68
2021/01/13 07:22:27;;;;;;;1.65;0.50;;;22.10;45.90;;;;;;4963298;28;20314;-70
2021/01/13 07:24:54;;;;;;;0.50;0.50;;;22.00;46.10;;;;;;4958652;28;20019;-68
2021/01/13 07:27:21;;;;;;;0.45;0.45;;;22.00;46.30;;;;;;4968149;28;20084;-68
2021/01/13 07:29:49;;;;;;;0.43;0.40;;;22.20;46.40;;;;;;4959201;28;20027;-65
2021/01/13 07:32:20;;;;;;;3.42;1.10;;;22.30;45.90;;;;;;4963110;28;20023;-68
2021/01/13 07:35:04;;;;;;;1.00;0.60;;;22.20;45.80;;;;;;4958626;28;20046;-68
2021/01/13 07:37:46;;;;;;;0.90;0.52;;;22.20;46.00;;;;;;4959667;28;20115;-66
2021/01/13 07:40:32;;;;;;;0.57;0.50;;;22.30;46.10;;;;;;4961553;28;20042;-67
2021/01/13 07:43:07;;;;;;;0.73;0.50;;;22.40;45.80;;;;;;4963876;28;20109;-66
2021/01/13 07:45:48;;;;;;;0.55;0.40;;;22.50;45.80;;;;;;4977129;28;20030;-69
2021/01/13 07:48:29;;;;;;;0.82;0.50;;;22.50;45.50;;;;;;4956616;28;20062;-65
2021/01/13 07:51:09;;;;;;;0.30;0.30;;;22.40;45.60;;;;;;4969871;28;20023;-68
2021/01/13 07:53:39;;;;;;;0.50;0.45;;;22.40;45.70;;;;;;4962835;28;20081;-68
2021/01/13 07:56:07;;;;;;;0.60;0.60;;;22.40;45.70;;;;;;4957784;28;20035;-68
2021/01/13 07:58:35;;;;;;;0.70;0.50;;;22.40;46.00;;;;;;4964790;28;20031;-69
2021/01/13 08:01:33;;;;;;;0.70;0.50;;;22.50;45.90;;;;;;4963429;28;20122;-67
2021/01/13 08:04:17;;;;;;;1.48;0.43;;;22.50;45.70;;;;;;4963467;28;20031;-67
2021/01/13 08:06:47;;;;;;;0.55;0.47;;;22.50;45.70;;;;;;4960977;28;20043;-68
2021/01/13 08:09:16;;;;;;;0.93;0.50;;;22.40;45.70;;;;;;4953953;28;20045;-68
2021/01/13 08:12:07;;;;;;;0.50;0.50;;;22.40;45.70;;;;;;4964212;28;20310;-70
2021/01/13 08:14:51;;;;;;;0.77;0.57;;;22.40;45.90;;;;;;4953632;28;20532;-69
2021/01/13 08:17:50;;;;;;;2.03;0.50;;;22.40;46.00;;;;;;4954807;28;20030;-69
2021/01/13 08:20:33;;;;;;;0.60;0.50;;;22.40;46.20;;;;;;4966344;28;20762;-68
2021/01/13 08:23:10;;;;;;;1.08;0.60;;;22.50;46.20;;;;;;4976019;28;20050;-65
2021/01/13 08:25:44;;;;;;;0.77;0.50;;;22.50;46.00;;;;;;4954830;28;20023;-67
2021/01/13 08:28:13;;;;;;;0.80;0.60;;;22.50;46.00;;;;;;4956521;28;20033;-68
2021/01/13 08:30:47;;;;;;;1.20;0.52;;;22.50;46.10;;;;;;4958547;28;20142;-68
2021/01/13 08:33:21;;;;;;;0.50;0.50;;;22.50;46.20;;;;;;4964219;28;20039;-67
2021/01/13 08:35:49;;;;;;;1.20;0.60;;;22.50;46.20;;;;;;4960124;28;20027;-68
2021/01/13 08:38:15;;;;;;;0.50;0.50;;;22.50;46.10;;;;;;4958095;28;20030;-69
2021/01/13 08:40:43;;;;;;;1.25;0.50;;;22.40;46.00;;;;;;4960204;28;20031;-67
2021/01/13 08:43:14;;;;;;;0.88;0.40;;;22.50;46.20;;;;;;4958684;28;20107;-68
2021/01/13 08:45:46;;;;;;;0.52;0.47;;;22.50;45.90;;;;;;4961513;28;20066;-68
2021/01/13 08:48:13;;;;;;;0.65;0.50;;;22.50;45.90;;;;;;4963881;28;20027;-67
2021/01/13 08:50:40;;;;;;;0.60;0.50;;;22.50;45.90;;;;;;4957967;28;20027;-69
2021/01/13 08:53:06;;;;;;;0.60;0.60;;;22.50;45.90;;;;;;4963776;28;20092;-68
2021/01/13 08:55:33;;;;;;;0.80;0.60;;;22.50;45.90;;;;;;4967535;28;20070;-68
2021/01/13 08:58:06;;;;;;;0.73;0.45;;;22.50;46.00;;;;;;4959385;28;20109;-70
2021/01/13 09:00:33;;;;;;;0.50;0.40;;;22.50;46.00;;;;;;4959151;28;20042;-71
2021/01/13 09:03:10;;;;;;;0.68;0.60;;;22.50;46.00;;;;;;4964069;28;20057;-69
2021/01/13 09:05:40;;;;;;;0.80;0.50;;;22.50;46.00;;;;;;4970024;28;20168;-69
2021/01/13 09:08:09;;;;;;;0.40;0.40;;;22.50;46.10;;;;;;4979833;28;20547;-71
2021/01/13 09:10:51;;;;;;;0.60;0.50;;;22.50;46.10;;;;;;4976188;28;20860;-70
2021/01/13 09:13:36;;;;;;;0.95;0.50;;;22.50;46.10;;;;;;4983627;28;20031;-70
2021/01/13 09:16:27;;;;;;;0.93;0.50;;;22.50;46.20;;;;;;4959161;28;20114;-70
2021/01/13 09:19:07;;;;;;;1.50;0.40;;;22.40;46.10;;;;;;4980802;28;20039;-68
2021/01/13 09:21:37;;;;;;;1.17;0.60;;;22.40;46.20;;;;;;4967055;28;20339;-69
2021/01/13 09:24:04;;;;;;;1.23;0.50;;;22.40;46.20;;;;;;4955232;28;20078;-68
2021/01/13 09:26:33;;;;;;;1.85;0.40;;;22.40;46.20;;;;;;4972243;28;20085;-67
2021/01/13 09:29:00;;;;;;;2.97;0.60;;;22.40;46.20;;;;;;4973805;28;20090;-68
2021/01/13 09:31:26;;;;;;;0.98;0.50;;;22.40;46.30;;;;;;4972183;28;20031;-69
2021/01/13 09:33:52;;;;;;;0.75;0.60;;;22.40;46.30;;;;;;4966437;28;20082;-69
2021/01/13 09:36:20;;;;;;;1.67;0.50;;;22.40;46.20;;;;;;4962506;28;20055;-68
2021/01/13 09:38:48;;;;;;;1.08;0.55;;;22.40;46.20;;;;;;4963720;28;20038;-70
2021/01/13 09:41:27;;;;;;;0.82;0.50;;;22.50;46.30;;;;;;4963184;28;20055;-68
2021/01/13 09:44:13;;;;;;;0.60;0.50;;;22.40;46.30;;;;;;4969321;28;20485;-67
2021/01/13 09:46:40;;;;;;;0.75;0.57;;;22.40;46.30;;;;;;4968376;28;20051;-68
2021/01/13 09:49:08;;;;;;;0.50;0.50;;;22.40;46.30;;;;;;4963178;28;20034;-70
2021/01/13 09:51:38;;;;;;;1.60;0.77;;;22.40;46.30;;;;;;4954484;28;20023;-68
2021/01/13 09:54:05;;;;;;;1.15;0.60;;;22.40;46.40;;;;;;4972945;28;20429;-69
2021/01/13 09:56:33;;;;;;;1.00;0.50;;;22.40;46.40;;;;;;4967842;28;20110;-72
2021/01/13 09:59:03;;;;;;;1.27;0.60;;;22.40;46.40;;;;;;4965749;28;20026;-68
2021/01/13 10:01:31;;;;;;;0.90;0.60;;;22.50;46.50;;;;;;4970993;28;20142;-68
2021/01/13 10:04:01;;;;;;;1.05;0.60;;;22.40;46.50;;;;;;4965451;28;20030;-67
2021/01/13 10:06:31;;;;;;;1.58;0.60;;;22.50;46.50;;;;;;4965661;28;20117;-69
2021/01/13 10:08:59;;;;;;;0.82;0.60;;;22.50;46.60;;;;;;4967639;28;20030;-68
2021/01/13 10:11:28;;;;;;;0.63;0.53;;;22.40;46.50;;;;;;4970155;28;20031;-68
2021/01/13 10:13:59;;;;;;;1.58;0.70;;;22.40;46.50;;;;;;4960214;28;20790;-70
2021/01/13 10:16:26;;;;;;;0.65;0.60;;;22.40;46.60;;;;;;4955739;28;20031;-68
2021/01/13 10:18:57;;;;;;;0.45;0.43;;;22.40;46.60;;;;;;4959560;28;20123;-68
2021/01/13 10:21:25;;;;;;;0.65;0.47;;;22.50;46.70;;;;;;4951563;28;20082;-67
2021/01/13 10:23:51;;;;;;;0.57;0.40;;;22.50;46.70;;;;;;4968287;28;20501;-70
2021/01/13 10:26:17;;;;;;;1.05;0.50;;;22.40;46.70;;;;;;4963012;28;20031;-70
2021/01/13 10:28:44;;;;;;;1.48;0.60;;;22.40;46.60;;;;;;4958441;28;20122;-70
2021/01/13 10:31:21;;;;;;;1.98;0.70;;;22.50;46.60;;;;;;4973889;28;20050;-71
2021/01/13 10:33:51;;;;;;;1.38;0.73;;;22.50;46.60;;;;;;4970713;28;20051;-70
2021/01/13 10:36:37;;;;;;;0.95;0.70;;;22.50;46.60;;;;;;4963429;28;20046;-70
2021/01/13 10:39:10;;;;;;;1.30;0.60;;;22.50;46.60;;;;;;4969913;28;20027;-70
2021/01/13 10:41:56;;;;;;;1.23;0.63;;;22.50;46.60;;;;;;4968367;28;20146;-70
2021/01/13 10:44:29;;;;;;;1.70;0.70;;;22.50;46.60;;;;;;4964042;28;20109;-70
2021/01/13 10:47:05;;;;;;;1.13;0.60;;;22.50;46.60;;;;;;4965857;28;20108;-70
2021/01/13 10:49:33;;;;;;;1.15;0.50;;;22.50;46.70;;;;;;4959152;28;20027;-69
2021/01/13 10:52:16;;;;;;;2.13;0.70;;;22.50;46.80;;;;;;4974679;28;20695;-68
2021/01/13 10:54:46;;;;;;;3.03;0.70;;;22.50;46.80;;;;;;4961260;28;20518;-68
2021/01/13 10:57:14;;;;;;;0.73;0.50;;;22.50;47.40;;;;;;4968625;28;20035;-69
2021/01/13 10:59:41;;;;;;;1.25;0.70;;;22.50;46.90;;;;;;4962741;28;20035;-70
2021/01/13 11:02:10;;;;;;;0.95;0.60;;;22.50;46.90;;;;;;4957941;28;20022;-69
2021/01/13 11:04:42;;;;;;;1.85;0.65;;;22.50;46.90;;;;;;4953838;28;20478;-70
2021/01/13 11:07:08;;;;;;;1.08;0.68;;;22.50;46.90;;;;;;4977229;28;20316;-71
2021/01/13 11:09:36;;;;;;;0.50;0.50;;;22.50;46.90;;;;;;4956392;28;20042;-68
2021/01/13 11:12:03;;;;;;;0.93;0.68;;;22.50;46.90;;;;;;4968240;28;20058;-69
2021/01/13 11:14:40;;;;;;;1.58;0.63;;;22.50;46.90;;;;;;4968197;28;20056;-69
2021/01/13 11:17:17;;;;;;;1.38;0.60;;;22.50;46.90;;;;;;4971183;28;20102;-71
2021/01/13 11:19:46;;;;;;;1.35;0.60;;;22.50;46.90;;;;;;4956266;28;20035;-69
2021/01/13 11:22:14;;;;;;;2.30;0.73;;;22.60;46.90;;;;;;4955551;28;20082;-70
2021/01/13 11:24:42;;;;;;;1.75;0.70;;;22.60;46.90;;;;;;4951472;28;20685;-71
2021/01/13 11:27:15;;;;;;;1.33;0.70;;;22.60;46.90;;;;;;4961317;28;20070;-69
2021/01/13 11:29:44;;;;;;;0.90;0.65;;;22.60;47.00;;;;;;4948712;28;20027;-70
2021/01/13 11:32:18;;;;;;;1.25;0.70;;;22.60;47.00;;;;;;4954063;28;20101;-69
2021/01/13 11:34:49;;;;;;;2.10;0.70;;;22.60;46.90;;;;;;4967018;28;20051;-69
2021/01/13 11:37:38;;;;;;;1.75;0.60;;;22.60;47.00;;;;;;4967938;28;20026;-68
2021/01/13 11:40:31;;;;;;;1.05;0.70;;;22.60;47.00;;;;;;4954204;28;20035;-68
2021/01/13 11:43:12;;;;;;;1.02;0.65;;;22.60;47.00;;;;;;4955635;28;20130;-68
2021/01/13 11:45:58;;;;;;;1.30;0.52;;;22.60;46.90;;;;;;4972111;28;20030;-70
2021/01/13 11:48:30;;;;;;;1.67;0.60;;;22.70;47.00;;;;;;4963655;28;20030;-70
2021/01/13 11:51:00;;;;;;;0.82;0.63;;;22.70;47.00;;;;;;4983033;28;20438;-69
2021/01/13 11:53:28;;;;;;;0.77;0.50;;;22.70;46.90;;;;;;4951419;28;20027;-69
2021/01/13 11:56:04;;;;;;;1.00;0.50;;;22.70;46.90;;;;;;4951086;28;20039;-69
2021/01/13 11:58:31;;;;;;;1.17;0.60;;;22.70;47.00;;;;;;4950614;28;20030;-67
2021/01/13 12:00:57;;;;;;;0.95;0.50;;;22.70;47.00;;;;;;4964558;28;20042;-69
2021/01/13 12:03:23;;;;;;;0.50;0.50;;;22.60;47.00;;;;;;4959510;28;20035;-69
2021/01/13 12:05:49;;;;;;;1.15;0.60;;;22.70;47.00;;;;;;4958102;28;20118;-67
2021/01/13 12:08:17;;;;;;;0.98;0.50;;;22.70;46.90;;;;;;4958696;28;20022;-71
2021/01/13 12:10:49;;;;;;;0.80;0.52;;;22.70;47.40;;;;;;4971322;28;20489;-68
2021/01/13 12:13:23;;;;;;;0.98;0.60;;;22.70;46.90;;;;;;4958902;28;20027;-69
2021/01/13 12:15:50;;;;;;;1.58;0.60;;;22.70;46.90;;;;;;4951478;28;20107;-68
2021/01/13 12:18:23;;;;;;;0.85;0.60;;;22.70;46.90;;;;;;4959220;28;20027;-69
2021/01/13 12:20:54;;;;;;;1.02;0.45;;;22.70;46.90;;;;;;4961527;28;20458;-69
2021/01/13 12:23:31;;;;;;;1.27;0.52;;;22.70;46.90;;;;;;4962015;28;20386;-69
2021/01/13 12:26:29;;;;;;;0.98;0.70;;;22.70;46.90;;;;;;4958275;28;20023;-69
2021/01/13 12:29:09;;;;;;;1.85;0.55;;;22.70;46.90;;;;;;4954845;28;20035;-69
2021/01/13 12:31:39;;;;;;;1.20;0.60;;;22.70;46.90;;;;;;4955673;28;20033;-67
2021/01/13 12:34:23;;;;;;;1.42;0.60;;;22.70;46.90;;;;;;4953082;28;20035;-68
2021/01/13 12:36:52;;;;;;;1.10;0.60;;;22.70;46.90;;;;;;4958853;28;20027;-70
2021/01/13 12:39:27;;;;;;;1.00;0.60;;;22.70;47.00;;;;;;4960075;28;20090;-68
2021/01/13 12:41:54;;;;;;;0.90;0.60;;;22.70;47.00;;;;;;4963732;28;20460;-68
2021/01/13 12:44:21;;;;;;;1.25;0.60;;;22.70;47.00;;;;;;4965524;28;20034;-71
2021/01/13 12:46:50;;;;;;;1.00;0.50;;;22.70;47.00;;;;;;4961661;28;20057;-68
2021/01/13 12:49:16;;;;;;;0.60;0.60;;;22.80;47.10;;;;;;4954967;28;20073;-68
2021/01/13 12:51:41;;;;;;;0.95;0.65;;;22.80;47.10;;;;;;4952591;28;20035;-68
2021/01/13 12:54:07;;;;;;;1.38;0.60;;;22.80;47.10;;;;;;4963488;28;20039;-68
2021/01/13 12:56:36;;;;;;;0.63;0.50;;;22.80;47.10;;;;;;4963826;28;20031;-67
2021/01/13 12:59:03;;;;;;;1.17;0.60;;;22.80;47.10;;;;;;4963864;28;20071;-68
2021/01/13 13:01:36;;;;;;;0.93;0.63;;;22.80;47.10;;;;;;4953521;28;20585;-68
2021/01/13 13:04:02;;;;;;;1.02;0.50;;;22.80;47.10;;;;;;4959821;28;20070;-69
2021/01/13 13:06:30;;;;;;;1.85;0.50;;;22.80;47.10;;;;;;4957596;28;20043;-66
2021/01/13 13:08:57;;;;;;;0.68;0.50;;;22.80;47.10;;;;;;4958090;28;20097;-69
2021/01/13 13:11:24;;;;;;;0.57;0.50;;;22.80;47.20;;;;;;4966267;28;20038;-68
2021/01/13 13:13:51;;;;;;;1.05;0.60;;;22.80;47.10;;;;;;4968047;28;20035;-66